Nyk Olympus — 3EOS7 — position and weather

sailwx.info

Track history (hours):
 
Tides and Currents Weather Stations Pressure Air Temp Water Temp Dewpoint Dewpoint Depression Visibility Wind Speed Wind Dir Waves Ship Positions

Nyk Olympus

Last reported at 2017-Aug-17 01:43 UTC. Time now 2017-Aug-17 06:02 UTC.
Position N 39°52' W 009°48'.

Length 335 m; draft 13.3 m.

Type: Other ship. MMSI: 372478000.

Date/timePositionNaut miles runAvg speedWind from/ knotsBaromVisibWave heightAir tempDewpointWater temp
2017-Aug-17 01:43N 39°52' W 009°48'414.1
2017-Aug-17 01:27N 39°48' W 009°48'614.3
2017-Aug-17 01:00N 39°42' W 009°49'714.5
2017-Aug-17 00:30N 39°35' W 009°49'714.6
2017-Aug-17 00:00N 39°28' W 009°50'714.5
2017-Aug-16 23:30N 39°20' W 009°50'714.1
2017-Aug-16 23:00N 39°13' W 009°50'714.5
2017-Aug-16 22:30N 39°06' W 009°50'714.3
2017-Aug-16 22:00N 38°59' W 009°50'714.3
2017-Aug-16 21:31N 38°52' W 009°51'714.1
2017-Aug-16 21:00N 38°45' W 009°52'714.2
2017-Aug-16 20:30N 38°38' W 009°50'714.0
2017-Aug-16 20:00N 38°31' W 009°47'713.6
2017-Aug-16 19:30N 38°25' W 009°45'714.0
2017-Aug-16 19:00N 38°18' W 009°43'713.7
2017-Aug-16 18:31N 38°11' W 009°41'713.1
2017-Aug-16 18:01N 38°05' W 009°39'713.2
2017-Aug-16 17:31N 37°59' W 009°37'713.4
2017-Aug-16 17:01N 37°52' W 009°35'713.2
2017-Aug-16 16:31N 37°46' W 009°33'713.0
2017-Aug-16 16:01N 37°39' W 009°31'713.6
2017-Aug-16 15:31N 37°33' W 009°30'713.6
2017-Aug-16 15:00N 37°26' W 009°29'713.8
2017-Aug-16 14:30N 37°19' W 009°27'714.1
2017-Aug-16 14:00N 37°12' W 009°25'714.2
2017-Aug-16 13:30N 37°05' W 009°23'714.6
2017-Aug-16 13:00N 36°58' W 009°21'816.4
2017-Aug-16 12:30N 36°51' W 009°16'816.7
2017-Aug-16 12:00N 36°45' W 009°08'917.1
2017-Aug-16 11:30N 36°42' W 008°58'817.0
2017-Aug-16 11:00N 36°39' W 008°48'917.2
2017-Aug-16 10:30N 36°36' W 008°38'917.5
2017-Aug-16 10:00N 36°33' W 008°28'917.8
2017-Aug-16 09:29N 36°30' W 008°17'918.0
2017-Aug-16 09:00N 36°27' W 008°07'918.0
2017-Aug-16 08:30N 36°24' W 007°57'918.1
2017-Aug-16 08:00N 36°21' W 007°46'918.0
2017-Aug-16 07:30N 36°18' W 007°36'918.3
2017-Aug-16 07:00N 36°15' W 007°25'1018.4
2017-Aug-16 06:29N 36°12' W 007°14'1118.4
2017-Aug-16 05:55N 36°09' W 007°01'718.0
2017-Aug-16 05:30N 36°06' W 006°53'1818.3
2017-Aug-16 04:29N 36°00' W 006°31'1718.4
2017-Aug-16 03:33N 35°57' W 006°10'2818.1
2017-Aug-16 02:00N 35°58' W 005°35'917.5
2017-Aug-16 01:30N 36°01' W 005°25'917.3
2017-Aug-16 01:00N 36°03' W 005°15'1018.6
2017-Aug-16 00:27N 36°07' W 005°03'15417.6
2017-Aug-15 15:39N 36°28' W 001°54'317.8
2017-Aug-15 15:29N 36°29' W 001°50'1518.0
2017-Aug-15 14:38N 36°31' W 001°31'1818.4
2017-Aug-15 13:41N 36°34' W 001°09'718.6
2017-Aug-15 13:20N 36°35' W 001°01'618.7
2017-Aug-15 12:59N 36°37' W 000°53'1418.9
2017-Aug-15 12:14N 36°39' W 000°36'1618.7
2017-Aug-15 11:24N 36°41' W 000°17'1018.6
2017-Aug-15 10:52N 36°43' W 000°04'1118.2
2017-Aug-15 10:17N 36°44' E 000°09'518.0
2017-Aug-15 10:00N 36°45' E 000°15'917.9
2017-Aug-15 09:30N 36°47' E 000°26'918.1
2017-Aug-15 09:00N 36°49' E 000°37'917.9
2017-Aug-15 08:30N 36°51' E 000°48'917.1
2017-Aug-15 08:00N 36°52' E 000°58'1019.7
2017-Aug-15 07:30N 36°54' E 001°10'1020.7
2017-Aug-15 07:00N 36°55' E 001°23'1020.6
2017-Aug-15 06:30N 36°57' E 001°36'1019.2
2017-Aug-15 06:00N 36°59' E 001°48'918.4
2017-Aug-15 05:30N 37°00' E 001°59'918.2
2017-Aug-15 05:00N 37°02' E 002°10'918.2
2017-Aug-15 04:30N 37°03' E 002°22'918.1
2017-Aug-15 04:00N 37°05' E 002°33'918.0
2017-Aug-15 03:30N 37°06' E 002°44'918.0
2017-Aug-15 03:00N 37°08' E 002°55'917.8
2017-Aug-15 02:30N 37°09' E 003°06'917.9
2017-Aug-15 02:00N 37°11' E 003°17'918.2
2017-Aug-15 01:30N 37°12' E 003°28'1018.6
2017-Aug-15 00:59N 37°14' E 003°40'918.7
2017-Aug-15 00:30N 37°16' E 003°51'918.3
2017-Aug-15 00:00N 37°18' E 004°03'917.9
2017-Aug-14 23:30N 37°20' E 004°13'917.6
2017-Aug-14 23:00N 37°22' E 004°24'917.3
2017-Aug-14 22:31N 37°23' E 004°35'1017.9
2017-Aug-14 21:57N 37°24' E 004°48'818.5
2017-Aug-14 21:30N 37°26' E 004°58'918.4
2017-Aug-14 21:01N 37°27' E 005°09'918.2
2017-Aug-14 20:30N 37°28' E 005°20'918.3
2017-Aug-14 20:00N 37°29' E 005°32'3418.5
2017-Aug-14 18:11N 37°33' E 006°14'318.4
2017-Aug-14 18:00N 37°33' E 006°18'918.1
2017-Aug-14 17:30N 37°34' E 006°30'918.0
2017-Aug-14 17:00N 37°35' E 006°41'918.0
2017-Aug-14 16:30N 37°35' E 006°52'918.0
2017-Aug-14 15:59N 37°36' E 007°04'918.1
2017-Aug-14 15:30N 37°36' E 007°15'918.0
2017-Aug-14 14:59N 37°37' E 007°27'918.2
2017-Aug-14 14:30N 37°37' E 007°38'1118.4
2017-Aug-14 13:53N 37°38' E 007°52'2218.8
2017-Aug-14 12:44N 37°40' E 008°19'519.0
2017-Aug-14 12:30N 37°40' E 008°25'1618.8
2017-Aug-14 11:38N 37°42' E 008°45'318.4
2017-Aug-14 11:30N 37°42' E 008°49'918.3
2017-Aug-14 11:00N 37°43' E 008°60'917.8
2017-Aug-14 10:30N 37°42' E 009°11'1317.8
2017-Aug-14 09:47N 37°42' E 009°28'617.9
2017-Aug-14 09:27N 37°41' E 009°35'818.0
2017-Aug-14 09:00N 37°40' E 009°45'5418.0
2017-Aug-14 06:01N 37°31' E 010°52'318.0
2017-Aug-14 05:53N 37°31' E 010°55'818.0
2017-Aug-14 05:28N 37°29' E 011°04'6218.0
2017-Aug-14 02:00N 37°01' E 012°14'918.4
2017-Aug-14 01:30N 36°58' E 012°25'918.6
2017-Aug-14 01:00N 36°56' E 012°36'3318.7
2017-Aug-13 23:13N 36°44' E 013°15'1518.8
2017-Aug-13 22:26N 36°39' E 013°33'818.7
2017-Aug-13 22:00N 36°39' E 013°43'918.5
2017-Aug-13 21:30N 36°36' E 013°54'918.4
2017-Aug-13 21:00N 36°33' E 014°05'918.2
2017-Aug-13 20:30N 36°31' E 014°16'917.9
2017-Aug-13 20:00N 36°28' E 014°26'917.5
2017-Aug-13 19:30N 36°25' E 014°36'917.1
2017-Aug-13 19:00N 36°22' E 014°47'917.0
2017-Aug-13 18:30N 36°20' E 014°57'817.2
2017-Aug-13 18:00N 36°17' E 015°07'917.7
2017-Aug-13 17:30N 36°15' E 015°17'918.4
2017-Aug-13 17:00N 36°12' E 015°28'918.4
2017-Aug-13 16:29N 36°09' E 015°39'47517.8
2017-Aug-12 13:50N 33°45' E 024°52'37918.1
2017-Aug-11 16:58N 31°45' E 031°59'817.9
2017-Aug-11 16:31N 31°39' E 032°06'917.9
2017-Aug-11 16:00N 31°33' E 032°13'917.6
2017-Aug-11 15:30N 31°28' E 032°22'713.0
2017-Aug-11 15:00N 31°22' E 032°23'713.4
2017-Aug-11 14:31N 31°16' E 032°21'8 7.8
2017-Aug-11 13:30N 31°08' E 032°19'4 8.1
2017-Aug-11 13:00N 31°04' E 032°19'5 9.7
2017-Aug-11 12:30N 30°59' E 032°19'5 9.4
2017-Aug-11 12:00N 30°54' E 032°19'5 9.2
2017-Aug-11 11:31N 30°50' E 032°19'5 9.0
2017-Aug-11 11:00N 30°45' E 032°20'4 8.7
2017-Aug-11 10:30N 30°41' E 032°21'5 9.2
2017-Aug-11 10:01N 30°37' E 032°20'4 8.8
2017-Aug-11 09:30N 30°32' E 032°20'4 7.7
2017-Aug-11 09:00N 30°28' E 032°21'4 9.2
2017-Aug-11 08:31N 30°24' E 032°22'  
Track history (hours):
 
Tides and Currents Weather Stations Pressure Air Temp Water Temp Dewpoint Dewpoint Depression Visibility Wind Speed Wind Dir Waves Ship Positions

Nyk Olympus

Last reported at 2017-Aug-17 01:43 UTC. Time now 2017-Aug-17 06:02 UTC.
Position N 39°52' W 009°48'.

Length 335 m; draft 13.3 m.

Type: Other ship. MMSI: 372478000.

Date/timePositionNaut miles runAvg speedWind from/ knotsBaromVisibWave heightAir tempDewpointWater temp
2017-Aug-17 01:43N 39°52' W 009°48'414.1
2017-Aug-17 01:27N 39°48' W 009°48'614.3
2017-Aug-17 01:00N 39°42' W 009°49'714.5
2017-Aug-17 00:30N 39°35' W 009°49'714.6
2017-Aug-17 00:00N 39°28' W 009°50'714.5
2017-Aug-16 23:30N 39°20' W 009°50'714.1
2017-Aug-16 23:00N 39°13' W 009°50'714.5
2017-Aug-16 22:30N 39°06' W 009°50'714.3
2017-Aug-16 22:00N 38°59' W 009°50'714.3
2017-Aug-16 21:31N 38°52' W 009°51'714.1
2017-Aug-16 21:00N 38°45' W 009°52'714.2
2017-Aug-16 20:30N 38°38' W 009°50'714.0
2017-Aug-16 20:00N 38°31' W 009°47'713.6
2017-Aug-16 19:30N 38°25' W 009°45'714.0
2017-Aug-16 19:00N 38°18' W 009°43'713.7
2017-Aug-16 18:31N 38°11' W 009°41'713.1
2017-Aug-16 18:01N 38°05' W 009°39'713.2
2017-Aug-16 17:31N 37°59' W 009°37'713.4
2017-Aug-16 17:01N 37°52' W 009°35'713.2
2017-Aug-16 16:31N 37°46' W 009°33'713.0
2017-Aug-16 16:01N 37°39' W 009°31'713.6
2017-Aug-16 15:31N 37°33' W 009°30'713.6
2017-Aug-16 15:00N 37°26' W 009°29'713.8
2017-Aug-16 14:30N 37°19' W 009°27'714.1
2017-Aug-16 14:00N 37°12' W 009°25'714.2
2017-Aug-16 13:30N 37°05' W 009°23'714.6
2017-Aug-16 13:00N 36°58' W 009°21'816.4
2017-Aug-16 12:30N 36°51' W 009°16'816.7
2017-Aug-16 12:00N 36°45' W 009°08'917.1
2017-Aug-16 11:30N 36°42' W 008°58'817.0
2017-Aug-16 11:00N 36°39' W 008°48'917.2
2017-Aug-16 10:30N 36°36' W 008°38'917.5
2017-Aug-16 10:00N 36°33' W 008°28'917.8
2017-Aug-16 09:29N 36°30' W 008°17'918.0
2017-Aug-16 09:00N 36°27' W 008°07'918.0
2017-Aug-16 08:30N 36°24' W 007°57'918.1
2017-Aug-16 08:00N 36°21' W 007°46'918.0
2017-Aug-16 07:30N 36°18' W 007°36'918.3
2017-Aug-16 07:00N 36°15' W 007°25'1018.4
2017-Aug-16 06:29N 36°12' W 007°14'1118.4
2017-Aug-16 05:55N 36°09' W 007°01'718.0
2017-Aug-16 05:30N 36°06' W 006°53'1818.3
2017-Aug-16 04:29N 36°00' W 006°31'1718.4
2017-Aug-16 03:33N 35°57' W 006°10'2818.1
2017-Aug-16 02:00N 35°58' W 005°35'917.5
2017-Aug-16 01:30N 36°01' W 005°25'917.3
2017-Aug-16 01:00N 36°03' W 005°15'1018.6
2017-Aug-16 00:27N 36°07' W 005°03'15417.6
2017-Aug-15 15:39N 36°28' W 001°54'317.8
2017-Aug-15 15:29N 36°29' W 001°50'1518.0
2017-Aug-15 14:38N 36°31' W 001°31'1818.4
2017-Aug-15 13:41N 36°34' W 001°09'718.6
2017-Aug-15 13:20N 36°35' W 001°01'618.7
2017-Aug-15 12:59N 36°37' W 000°53'1418.9
2017-Aug-15 12:14N 36°39' W 000°36'1618.7
2017-Aug-15 11:24N 36°41' W 000°17'1018.6
2017-Aug-15 10:52N 36°43' W 000°04'1118.2
2017-Aug-15 10:17N 36°44' E 000°09'518.0
2017-Aug-15 10:00N 36°45' E 000°15'917.9
2017-Aug-15 09:30N 36°47' E 000°26'918.1
2017-Aug-15 09:00N 36°49' E 000°37'917.9
2017-Aug-15 08:30N 36°51' E 000°48'917.1
2017-Aug-15 08:00N 36°52' E 000°58'1019.7
2017-Aug-15 07:30N 36°54' E 001°10'1020.7
2017-Aug-15 07:00N 36°55' E 001°23'1020.6
2017-Aug-15 06:30N 36°57' E 001°36'1019.2
2017-Aug-15 06:00N 36°59' E 001°48'918.4
2017-Aug-15 05:30N 37°00' E 001°59'918.2
2017-Aug-15 05:00N 37°02' E 002°10'918.2
2017-Aug-15 04:30N 37°03' E 002°22'918.1
2017-Aug-15 04:00N 37°05' E 002°33'918.0
2017-Aug-15 03:30N 37°06' E 002°44'918.0
2017-Aug-15 03:00N 37°08' E 002°55'917.8
2017-Aug-15 02:30N 37°09' E 003°06'917.9
2017-Aug-15 02:00N 37°11' E 003°17'918.2
2017-Aug-15 01:30N 37°12' E 003°28'1018.6
2017-Aug-15 00:59N 37°14' E 003°40'918.7
2017-Aug-15 00:30N 37°16' E 003°51'918.3
2017-Aug-15 00:00N 37°18' E 004°03'917.9
2017-Aug-14 23:30N 37°20' E 004°13'917.6
2017-Aug-14 23:00N 37°22' E 004°24'917.3
2017-Aug-14 22:31N 37°23' E 004°35'1017.9
2017-Aug-14 21:57N 37°24' E 004°48'818.5
2017-Aug-14 21:30N 37°26' E 004°58'918.4
2017-Aug-14 21:01N 37°27' E 005°09'918.2
2017-Aug-14 20:30N 37°28' E 005°20'918.3
2017-Aug-14 20:00N 37°29' E 005°32'3418.5
2017-Aug-14 18:11N 37°33' E 006°14'318.4
2017-Aug-14 18:00N 37°33' E 006°18'918.1
2017-Aug-14 17:30N 37°34' E 006°30'918.0
2017-Aug-14 17:00N 37°35' E 006°41'918.0
2017-Aug-14 16:30N 37°35' E 006°52'918.0
2017-Aug-14 15:59N 37°36' E 007°04'918.1
2017-Aug-14 15:30N 37°36' E 007°15'918.0
2017-Aug-14 14:59N 37°37' E 007°27'918.2
2017-Aug-14 14:30N 37°37' E 007°38'1118.4
2017-Aug-14 13:53N 37°38' E 007°52'2218.8
2017-Aug-14 12:44N 37°40' E 008°19'519.0
2017-Aug-14 12:30N 37°40' E 008°25'1618.8
2017-Aug-14 11:38N 37°42' E 008°45'318.4
2017-Aug-14 11:30N 37°42' E 008°49'918.3
2017-Aug-14 11:00N 37°43' E 008°60'917.8
2017-Aug-14 10:30N 37°42' E 009°11'1317.8
2017-Aug-14 09:47N 37°42' E 009°28'617.9
2017-Aug-14 09:27N 37°41' E 009°35'818.0
2017-Aug-14 09:00N 37°40' E 009°45'5418.0
2017-Aug-14 06:01N 37°31' E 010°52'318.0
2017-Aug-14 05:53N 37°31' E 010°55'818.0
2017-Aug-14 05:28N 37°29' E 011°04'6218.0
2017-Aug-14 02:00N 37°01' E 012°14'918.4
2017-Aug-14 01:30N 36°58' E 012°25'918.6
2017-Aug-14 01:00N 36°56' E 012°36'3318.7
2017-Aug-13 23:13N 36°44' E 013°15'1518.8
2017-Aug-13 22:26N 36°39' E 013°33'818.7
2017-Aug-13 22:00N 36°39' E 013°43'918.5
2017-Aug-13 21:30N 36°36' E 013°54'918.4
2017-Aug-13 21:00N 36°33' E 014°05'918.2
2017-Aug-13 20:30N 36°31' E 014°16'917.9
2017-Aug-13 20:00N 36°28' E 014°26'917.5
2017-Aug-13 19:30N 36°25' E 014°36'917.1
2017-Aug-13 19:00N 36°22' E 014°47'917.0
2017-Aug-13 18:30N 36°20' E 014°57'817.2
2017-Aug-13 18:00N 36°17' E 015°07'917.7
2017-Aug-13 17:30N 36°15' E 015°17'918.4
2017-Aug-13 17:00N 36°12' E 015°28'918.4
2017-Aug-13 16:29N 36°09' E 015°39'47517.8
2017-Aug-12 13:50N 33°45' E 024°52'37918.1
2017-Aug-11 16:58N 31°45' E 031°59'817.9
2017-Aug-11 16:31N 31°39' E 032°06'917.9
2017-Aug-11 16:00N 31°33' E 032°13'917.6
2017-Aug-11 15:30N 31°28' E 032°22'713.0
2017-Aug-11 15:00N 31°22' E 032°23'713.4
2017-Aug-11 14:31N 31°16' E 032°21'8 7.8
2017-Aug-11 13:30N 31°08' E 032°19'4 8.1
2017-Aug-11 13:00N 31°04' E 032°19'5 9.7
2017-Aug-11 12:30N 30°59' E 032°19'5 9.4
2017-Aug-11 12:00N 30°54' E 032°19'5 9.2
2017-Aug-11 11:31N 30°50' E 032°19'5 9.0
2017-Aug-11 11:00N 30°45' E 032°20'4 8.7
2017-Aug-11 10:30N 30°41' E 032°21'5 9.2
2017-Aug-11 10:01N 30°37' E 032°20'4 8.8
2017-Aug-11 09:30N 30°32' E 032°20'4 7.7
2017-Aug-11 09:00N 30°28' E 032°21'4 9.2
2017-Aug-11 08:31N 30°24' E 032°22'  

Dump ship's entire track history